<?xml version="1.0" encoding="UTF-8" standalone="no" ?>
<gpx xmlns="http://www.topografix.com/GPX/1/1" xmlns:xsi="http://www.w3.org/2001/XMLSchema-instance" xsi:schemaLocation="http://www.topografix.com/GPX/1/1 http://www.topografix.com/GPX/1/1/gpx.xsd" version="1.1" creator="VisuGPX - https://www.visugpx.com">
  <metadata>
    <name>Redon_Chateaulin</name>
    <desc><![CDATA[Randonnée cyclotouriste de Redon à Châteaulin par le chemin de halage du canal de Nantes à Brest avec quelques échappées vers Rostrenen, Carhaix et Pleyben.]]></desc>
  </metadata>
  <trk>
    <name><![CDATA[ACTIVE LOG 012]]></name>
    <trkseg>
      <trkpt lat="48.23112" lon="-3.40889">
        <ele>137.12524414062</ele>
        <time>2012-04-18T11:02:31Z</time>
      </trkpt>
      <trkpt lat="48.2311" lon="-3.40888">
        <ele>188.07507324219</ele>
        <time>2012-04-18T11:02:44Z</time>
      </trkpt>
      <trkpt lat="48.23113" lon="-3.4089">
        <ele>179.42321777344</ele>
        <time>2012-04-18T11:02:51Z</time>
      </trkpt>
      <trkpt lat="48.23111" lon="-3.40898">
        <ele>175.09729003906</ele>
        <time>2012-04-18T11:03:02Z</time>
      </trkpt>
      <trkpt lat="48.23112" lon="-3.40913">
        <ele>176.53930664062</ele>
        <time>2012-04-18T11:03:09Z</time>
      </trkpt>
      <trkpt lat="48.23115" lon="-3.40955">
        <ele>178.4619140625</ele>
        <time>2012-04-18T11:03:21Z</time>
      </trkpt>
      <trkpt lat="48.23178" lon="-3.4099">
        <ele>176.05859375</ele>
        <time>2012-04-18T11:03:39Z</time>
      </trkpt>
      <trkpt lat="48.23217" lon="-3.41084">
        <ele>174.61657714844</ele>
        <time>2012-04-18T11:03:57Z</time>
      </trkpt>
      <trkpt lat="48.23248" lon="-3.41161">
        <ele>173.17468261719</ele>
        <time>2012-04-18T11:04:09Z</time>
      </trkpt>
      <trkpt lat="48.23293" lon="-3.41269">
        <ele>170.29064941406</ele>
        <time>2012-04-18T11:04:28Z</time>
      </trkpt>
      <trkpt lat="48.23334" lon="-3.41348">
        <ele>170.29064941406</ele>
        <time>2012-04-18T11:04:46Z</time>
      </trkpt>
      <trkpt lat="48.23357" lon="-3.41352">
        <ele>168.36804199219</ele>
        <time>2012-04-18T11:04:56Z</time>
      </trkpt>
      <trkpt lat="48.23362" lon="-3.41352">
        <ele>168.36804199219</ele>
        <time>2012-04-18T11:05:00Z</time>
      </trkpt>
      <trkpt lat="48.23439" lon="-3.41352">
        <ele>167.40673828125</ele>
        <time>2012-04-18T11:05:20Z</time>
      </trkpt>
      <trkpt lat="48.23502" lon="-3.41508">
        <ele>164.52270507812</ele>
        <time>2012-04-18T11:05:38Z</time>
      </trkpt>
      <trkpt lat="48.23595" lon="-3.4159">
        <ele>161.63891601562</ele>
        <time>2012-04-18T11:06:00Z</time>
      </trkpt>
      <trkpt lat="48.23693" lon="-3.41637">
        <ele>160.67749023438</ele>
        <time>2012-04-18T11:06:19Z</time>
      </trkpt>
      <trkpt lat="48.23704" lon="-3.41679">
        <ele>159.23547363281</ele>
        <time>2012-04-18T11:06:26Z</time>
      </trkpt>
      <trkpt lat="48.23713" lon="-3.41717">
        <ele>159.71618652344</ele>
        <time>2012-04-18T11:06:32Z</time>
      </trkpt>
      <trkpt lat="48.23732" lon="-3.41817">
        <ele>160.19689941406</ele>
        <time>2012-04-18T11:06:50Z</time>
      </trkpt>
      <trkpt lat="48.23744" lon="-3.41902">
        <ele>158.27416992188</ele>
        <time>2012-04-18T11:07:04Z</time>
      </trkpt>
      <trkpt lat="48.2375" lon="-3.41941">
        <ele>157.31286621094</ele>
        <time>2012-04-18T11:07:10Z</time>
      </trkpt>
      <trkpt lat="48.23771" lon="-3.42054">
        <ele>155.39025878906</ele>
        <time>2012-04-18T11:07:28Z</time>
      </trkpt>
      <trkpt lat="48.23784" lon="-3.42101">
        <ele>155.39025878906</ele>
        <time>2012-04-18T11:07:36Z</time>
      </trkpt>
      <trkpt lat="48.23818" lon="-3.42166">
        <ele>152.50634765625</ele>
        <time>2012-04-18T11:07:50Z</time>
      </trkpt>
      <trkpt lat="48.23835" lon="-3.42195">
        <ele>152.02575683594</ele>
        <time>2012-04-18T11:07:56Z</time>
      </trkpt>
      <trkpt lat="48.23884" lon="-3.42251">
        <ele>151.544921875</ele>
        <time>2012-04-18T11:08:11Z</time>
      </trkpt>
      <trkpt lat="48.23962" lon="-3.42295">
        <ele>148.18041992188</ele>
        <time>2012-04-18T11:08:32Z</time>
      </trkpt>
      <trkpt lat="48.24035" lon="-3.42374">
        <ele>149.62231445312</ele>
        <time>2012-04-18T11:08:53Z</time>
      </trkpt>
      <trkpt lat="48.24106" lon="-3.42443">
        <ele>151.06420898438</ele>
        <time>2012-04-18T11:09:13Z</time>
      </trkpt>
      <trkpt lat="48.24183" lon="-3.42464">
        <ele>149.1416015625</ele>
        <time>2012-04-18T11:09:32Z</time>
      </trkpt>
      <trkpt lat="48.242" lon="-3.42464">
        <ele>149.62231445312</ele>
        <time>2012-04-18T11:09:36Z</time>
      </trkpt>
      <trkpt lat="48.24267" lon="-3.42457">
        <ele>148.18041992188</ele>
        <time>2012-04-18T11:09:52Z</time>
      </trkpt>
      <trkpt lat="48.24345" lon="-3.42448">
        <ele>149.62231445312</ele>
        <time>2012-04-18T11:10:10Z</time>
      </trkpt>
      <trkpt lat="48.24444" lon="-3.42436">
        <ele>147.69970703125</ele>
        <time>2012-04-18T11:10:32Z</time>
      </trkpt>
      <trkpt lat="48.24517" lon="-3.42428">
        <ele>143.85437011719</ele>
        <time>2012-04-18T11:10:48Z</time>
      </trkpt>
      <trkpt lat="48.24567" lon="-3.42452">
        <ele>142.41247558594</ele>
        <time>2012-04-18T11:11:00Z</time>
      </trkpt>
      <trkpt lat="48.24616" lon="-3.42532">
        <ele>142.41247558594</ele>
        <time>2012-04-18T11:11:17Z</time>
      </trkpt>
      <trkpt lat="48.24647" lon="-3.42614">
        <ele>141.45104980469</ele>
        <time>2012-04-18T11:11:33Z</time>
      </trkpt>
      <trkpt lat="48.24675" lon="-3.42687">
        <ele>137.60583496094</ele>
        <time>2012-04-18T11:11:47Z</time>
      </trkpt>
      <trkpt lat="48.24713" lon="-3.42787">
        <ele>134.72192382812</ele>
        <time>2012-04-18T11:12:04Z</time>
      </trkpt>
      <trkpt lat="48.24761" lon="-3.42915">
        <ele>138.08654785156</ele>
        <time>2012-04-18T11:12:27Z</time>
      </trkpt>
      <trkpt lat="48.24796" lon="-3.42971">
        <ele>139.0478515625</ele>
        <time>2012-04-18T11:12:40Z</time>
      </trkpt>
      <trkpt lat="48.24867" lon="-3.43027">
        <ele>137.60583496094</ele>
        <time>2012-04-18T11:12:59Z</time>
      </trkpt>
      <trkpt lat="48.24899" lon="-3.43052">
        <ele>135.68310546875</ele>
        <time>2012-04-18T11:13:14Z</time>
      </trkpt>
      <trkpt lat="48.24899" lon="-3.43052">
        <ele>135.68310546875</ele>
        <time>2012-04-18T11:13:17Z</time>
      </trkpt>
      <trkpt lat="48.24962" lon="-3.43099">
        <ele>137.12524414062</ele>
        <time>2012-04-18T11:13:31Z</time>
      </trkpt>
      <trkpt lat="48.25026" lon="-3.43143">
        <ele>142.41247558594</ele>
        <time>2012-04-18T11:13:48Z</time>
      </trkpt>
      <trkpt lat="48.25071" lon="-3.43174">
        <ele>142.41247558594</ele>
        <time>2012-04-18T11:14:03Z</time>
      </trkpt>
      <trkpt lat="48.25122" lon="-3.43213">
        <ele>139.0478515625</ele>
        <time>2012-04-18T11:14:17Z</time>
      </trkpt>
      <trkpt lat="48.25152" lon="-3.43265">
        <ele>139.0478515625</ele>
        <time>2012-04-18T11:14:30Z</time>
      </trkpt>
      <trkpt lat="48.25172" lon="-3.43309">
        <ele>137.12524414062</ele>
        <time>2012-04-18T11:14:44Z</time>
      </trkpt>
      <trkpt lat="48.25193" lon="-3.43355">
        <ele>138.08654785156</ele>
        <time>2012-04-18T11:15:00Z</time>
      </trkpt>
      <trkpt lat="48.25228" lon="-3.43429">
        <ele>132.79931640625</ele>
        <time>2012-04-18T11:15:15Z</time>
      </trkpt>
      <trkpt lat="48.25256" lon="-3.43483">
        <ele>130.87670898438</ele>
        <time>2012-04-18T11:15:27Z</time>
      </trkpt>
      <trkpt lat="48.2528" lon="-3.43534">
        <ele>131.837890625</ele>
        <time>2012-04-18T11:15:40Z</time>
      </trkpt>
      <trkpt lat="48.25315" lon="-3.4361">
        <ele>131.837890625</ele>
        <time>2012-04-18T11:15:58Z</time>
      </trkpt>
      <trkpt lat="48.25325" lon="-3.43626">
        <ele>131.35729980469</ele>
        <time>2012-04-18T11:16:07Z</time>
      </trkpt>
      <trkpt lat="48.25325" lon="-3.43631">
        <ele>132.31860351562</ele>
        <time>2012-04-18T11:16:11Z</time>
      </trkpt>
      <trkpt lat="48.2533" lon="-3.4364">
        <ele>132.79931640625</ele>
        <time>2012-04-18T11:16:16Z</time>
      </trkpt>
      <trkpt lat="48.25371" lon="-3.43722">
        <ele>131.837890625</ele>
        <time>2012-04-18T11:16:31Z</time>
      </trkpt>
      <trkpt lat="48.25387" lon="-3.43756">
        <ele>134.72192382812</ele>
        <time>2012-04-18T11:16:43Z</time>
      </trkpt>
      <trkpt lat="48.25419" lon="-3.43826">
        <ele>134.2412109375</ele>
        <time>2012-04-18T11:17:02Z</time>
      </trkpt>
      <trkpt lat="48.25446" lon="-3.43886">
        <ele>132.31860351562</ele>
        <time>2012-04-18T11:17:15Z</time>
      </trkpt>
      <trkpt lat="48.25487" lon="-3.43976">
        <ele>132.31860351562</ele>
        <time>2012-04-18T11:17:34Z</time>
      </trkpt>
      <trkpt lat="48.25514" lon="-3.44035">
        <ele>132.79931640625</ele>
        <time>2012-04-18T11:17:48Z</time>
      </trkpt>
      <trkpt lat="48.25527" lon="-3.44065">
        <ele>130.39599609375</ele>
        <time>2012-04-18T11:17:53Z</time>
      </trkpt>
      <trkpt lat="48.25568" lon="-3.44154">
        <ele>128.47338867188</ele>
        <time>2012-04-18T11:18:09Z</time>
      </trkpt>
      <trkpt lat="48.25581" lon="-3.44184">
        <ele>126.55065917969</ele>
        <time>2012-04-18T11:18:15Z</time>
      </trkpt>
      <trkpt lat="48.25604" lon="-3.44263">
        <ele>125.58935546875</ele>
        <time>2012-04-18T11:18:30Z</time>
      </trkpt>
      <trkpt lat="48.25607" lon="-3.44327">
        <ele>126.06994628906</ele>
        <time>2012-04-18T11:18:41Z</time>
      </trkpt>
      <trkpt lat="48.25608" lon="-3.44346">
        <ele>126.55065917969</ele>
        <time>2012-04-18T11:18:44Z</time>
      </trkpt>
      <trkpt lat="48.25612" lon="-3.44443">
        <ele>126.06994628906</ele>
        <time>2012-04-18T11:19:05Z</time>
      </trkpt>
      <trkpt lat="48.25615" lon="-3.44511">
        <ele>126.06994628906</ele>
        <time>2012-04-18T11:19:16Z</time>
      </trkpt>
      <trkpt lat="48.25619" lon="-3.44591">
        <ele>128.47338867188</ele>
        <time>2012-04-18T11:19:34Z</time>
      </trkpt>
      <trkpt lat="48.2562" lon="-3.4461">
        <ele>128.47338867188</ele>
        <time>2012-04-18T11:19:43Z</time>
      </trkpt>
      <trkpt lat="48.2562" lon="-3.4461">
        <ele>127.99255371094</ele>
        <time>2012-04-18T11:19:46Z</time>
      </trkpt>
      <trkpt lat="48.2562" lon="-3.4461">
        <ele>127.51196289062</ele>
        <time>2012-04-18T11:19:50Z</time>
      </trkpt>
      <trkpt lat="48.25618" lon="-3.44682">
        <ele>125.58935546875</ele>
        <time>2012-04-18T11:20:01Z</time>
      </trkpt>
      <trkpt lat="48.25617" lon="-3.4475">
        <ele>127.51196289062</ele>
        <time>2012-04-18T11:20:14Z</time>
      </trkpt>
      <trkpt lat="48.25604" lon="-3.44813">
        <ele>126.55065917969</ele>
        <time>2012-04-18T11:20:25Z</time>
      </trkpt>
      <trkpt lat="48.25596" lon="-3.44825">
        <ele>129.43469238281</ele>
        <time>2012-04-18T11:20:28Z</time>
      </trkpt>
      <trkpt lat="48.25533" lon="-3.44885">
        <ele>129.91528320312</ele>
        <time>2012-04-18T11:20:47Z</time>
      </trkpt>
      <trkpt lat="48.2547" lon="-3.44944">
        <ele>127.99255371094</ele>
        <time>2012-04-18T11:21:06Z</time>
      </trkpt>
      <trkpt lat="48.25442" lon="-3.4497">
        <ele>125.58935546875</ele>
        <time>2012-04-18T11:21:13Z</time>
      </trkpt>
      <trkpt lat="48.25395" lon="-3.45011">
        <ele>123.18615722656</ele>
        <time>2012-04-18T11:21:24Z</time>
      </trkpt>
      <trkpt lat="48.25321" lon="-3.45077">
        <ele>122.22473144531</ele>
        <time>2012-04-18T11:21:44Z</time>
      </trkpt>
      <trkpt lat="48.25255" lon="-3.45136">
        <ele>123.18615722656</ele>
        <time>2012-04-18T11:22:03Z</time>
      </trkpt>
      <trkpt lat="48.25216" lon="-3.45166">
        <ele>122.70544433594</ele>
        <time>2012-04-18T11:22:14Z</time>
      </trkpt>
      <trkpt lat="48.25176" lon="-3.45199">
        <ele>119.3408203125</ele>
        <time>2012-04-18T11:22:24Z</time>
      </trkpt>
      <trkpt lat="48.25161" lon="-3.45234">
        <ele>118.37939453125</ele>
        <time>2012-04-18T11:22:28Z</time>
      </trkpt>
      <trkpt lat="48.25164" lon="-3.45341">
        <ele>117.41821289062</ele>
        <time>2012-04-18T11:22:46Z</time>
      </trkpt>
      <trkpt lat="48.25167" lon="-3.45488">
        <ele>118.86010742188</ele>
        <time>2012-04-18T11:23:10Z</time>
      </trkpt>
      <trkpt lat="48.25169" lon="-3.45598">
        <ele>119.3408203125</ele>
        <time>2012-04-18T11:23:29Z</time>
      </trkpt>
      <trkpt lat="48.25172" lon="-3.4571">
        <ele>118.37939453125</ele>
        <time>2012-04-18T11:23:48Z</time>
      </trkpt>
      <trkpt lat="48.25174" lon="-3.45802">
        <ele>116.9375</ele>
        <time>2012-04-18T11:24:02Z</time>
      </trkpt>
      <trkpt lat="48.2519" lon="-3.45882">
        <ele>117.89880371094</ele>
        <time>2012-04-18T11:24:14Z</time>
      </trkpt>
      <trkpt lat="48.252" lon="-3.45911">
        <ele>117.89880371094</ele>
        <time>2012-04-18T11:24:19Z</time>
      </trkpt>
      <trkpt lat="48.25249" lon="-3.45993">
        <ele>115.01489257812</ele>
        <time>2012-04-18T11:24:36Z</time>
      </trkpt>
      <trkpt lat="48.25269" lon="-3.46018">
        <ele>114.5341796875</ele>
        <time>2012-04-18T11:24:42Z</time>
      </trkpt>
      <trkpt lat="48.25317" lon="-3.46073">
        <ele>114.5341796875</ele>
        <time>2012-04-18T11:24:56Z</time>
      </trkpt>
      <trkpt lat="48.25324" lon="-3.46078">
        <ele>113.57299804688</ele>
        <time>2012-04-18T11:24:58Z</time>
      </trkpt>
      <trkpt lat="48.25414" lon="-3.46146">
        <ele>113.09228515625</ele>
        <time>2012-04-18T11:25:21Z</time>
      </trkpt>
      <trkpt lat="48.25473" lon="-3.46192">
        <ele>112.13098144531</ele>
        <time>2012-04-18T11:25:34Z</time>
      </trkpt>
      <trkpt lat="48.25498" lon="-3.46211">
        <ele>113.09228515625</ele>
        <time>2012-04-18T11:25:41Z</time>
      </trkpt>
      <trkpt lat="48.25554" lon="-3.46254">
        <ele>110.20825195312</ele>
        <time>2012-04-18T11:25:55Z</time>
      </trkpt>
      <trkpt lat="48.25566" lon="-3.46263">
        <ele>110.20825195312</ele>
        <time>2012-04-18T11:25:58Z</time>
      </trkpt>
      <trkpt lat="48.25625" lon="-3.46308">
        <ele>110.20825195312</ele>
        <time>2012-04-18T11:26:12Z</time>
      </trkpt>
      <trkpt lat="48.2564" lon="-3.46323">
        <ele>110.68884277344</ele>
        <time>2012-04-18T11:26:16Z</time>
      </trkpt>
      <trkpt lat="48.2568" lon="-3.46419">
        <ele>111.16955566406</ele>
        <time>2012-04-18T11:26:32Z</time>
      </trkpt>
      <trkpt lat="48.2567" lon="-3.46482">
        <ele>110.68884277344</ele>
        <time>2012-04-18T11:26:42Z</time>
      </trkpt>
      <trkpt lat="48.25634" lon="-3.46593">
        <ele>110.20825195312</ele>
        <time>2012-04-18T11:27:00Z</time>
      </trkpt>
      <trkpt lat="48.2561" lon="-3.46666">
        <ele>110.68884277344</ele>
        <time>2012-04-18T11:27:12Z</time>
      </trkpt>
      <trkpt lat="48.25594" lon="-3.46736">
        <ele>113.09228515625</ele>
        <time>2012-04-18T11:27:23Z</time>
      </trkpt>
      <trkpt lat="48.25594" lon="-3.46793">
        <ele>112.13098144531</ele>
        <time>2012-04-18T11:27:31Z</time>
      </trkpt>
      <trkpt lat="48.25604" lon="-3.46888">
        <ele>113.09228515625</ele>
        <time>2012-04-18T11:27:46Z</time>
      </trkpt>
      <trkpt lat="48.25607" lon="-3.46906">
        <ele>113.57299804688</ele>
        <time>2012-04-18T11:27:49Z</time>
      </trkpt>
      <trkpt lat="48.25628" lon="-3.47023">
        <ele>111.65026855469</ele>
        <time>2012-04-18T11:28:07Z</time>
      </trkpt>
      <trkpt lat="48.25644" lon="-3.47109">
        <ele>109.24694824219</ele>
        <time>2012-04-18T11:28:23Z</time>
      </trkpt>
      <trkpt lat="48.25646" lon="-3.47123">
        <ele>108.28564453125</ele>
        <time>2012-04-18T11:28:29Z</time>
      </trkpt>
      <trkpt lat="48.2565" lon="-3.47146">
        <ele>106.84362792969</ele>
        <time>2012-04-18T11:28:36Z</time>
      </trkpt>
      <trkpt lat="48.25652" lon="-3.47154">
        <ele>108.28564453125</ele>
        <time>2012-04-18T11:28:43Z</time>
      </trkpt>
      <trkpt lat="48.25654" lon="-3.47167">
        <ele>108.76623535156</ele>
        <time>2012-04-18T11:28:46Z</time>
      </trkpt>
      <trkpt lat="48.25655" lon="-3.47168">
        <ele>108.28564453125</ele>
        <time>2012-04-18T11:28:48Z</time>
      </trkpt>
      <trkpt lat="48.25666" lon="-3.47233">
        <ele>108.76623535156</ele>
        <time>2012-04-18T11:29:01Z</time>
      </trkpt>
      <trkpt lat="48.25678" lon="-3.47304">
        <ele>106.36303710938</ele>
        <time>2012-04-18T11:29:14Z</time>
      </trkpt>
      <trkpt lat="48.25666" lon="-3.47389">
        <ele>107.32434082031</ele>
        <time>2012-04-18T11:29:29Z</time>
      </trkpt>
      <trkpt lat="48.25631" lon="-3.47495">
        <ele>108.28564453125</ele>
        <time>2012-04-18T11:29:49Z</time>
      </trkpt>
      <trkpt lat="48.25588" lon="-3.47625">
        <ele>110.20825195312</ele>
        <time>2012-04-18T11:30:12Z</time>
      </trkpt>
      <trkpt lat="48.25549" lon="-3.4774">
        <ele>109.72766113281</ele>
        <time>2012-04-18T11:30:32Z</time>
      </trkpt>
      <trkpt lat="48.25527" lon="-3.47804">
        <ele>108.76623535156</ele>
        <time>2012-04-18T11:30:43Z</time>
      </trkpt>
      <trkpt lat="48.2552" lon="-3.47827">
        <ele>109.72766113281</ele>
        <time>2012-04-18T11:30:47Z</time>
      </trkpt>
      <trkpt lat="48.25474" lon="-3.47975">
        <ele>107.80505371094</ele>
        <time>2012-04-18T11:31:11Z</time>
      </trkpt>
      <trkpt lat="48.25478" lon="-3.48007">
        <ele>107.32434082031</ele>
        <time>2012-04-18T11:31:16Z</time>
      </trkpt>
      <trkpt lat="48.25497" lon="-3.48094">
        <ele>106.36303710938</ele>
        <time>2012-04-18T11:31:31Z</time>
      </trkpt>
      <trkpt lat="48.25513" lon="-3.48168">
        <ele>103.47900390625</ele>
        <time>2012-04-18T11:31:44Z</time>
      </trkpt>
      <trkpt lat="48.25539" lon="-3.48282">
        <ele>100.11450195312</ele>
        <time>2012-04-18T11:32:03Z</time>
      </trkpt>
      <trkpt lat="48.25556" lon="-3.48361">
        <ele>99.153076171875</ele>
        <time>2012-04-18T11:32:16Z</time>
      </trkpt>
      <trkpt lat="48.25554" lon="-3.48416">
        <ele>101.07568359375</ele>
        <time>2012-04-18T11:32:24Z</time>
      </trkpt>
      <trkpt lat="48.25549" lon="-3.48437">
        <ele>100.11450195312</ele>
        <time>2012-04-18T11:32:27Z</time>
      </trkpt>
      <trkpt lat="48.25499" lon="-3.4851">
        <ele>105.40173339844</ele>
        <time>2012-04-18T11:32:43Z</time>
      </trkpt>
      <trkpt lat="48.25484" lon="-3.4853">
        <ele>108.28564453125</ele>
        <time>2012-04-18T11:32:48Z</time>
      </trkpt>
      <trkpt lat="48.25455" lon="-3.4857">
        <ele>112.13098144531</ele>
        <time>2012-04-18T11:33:00Z</time>
      </trkpt>
      <trkpt lat="48.25416" lon="-3.48622">
        <ele>112.61157226562</ele>
        <time>2012-04-18T11:33:14Z</time>
      </trkpt>
      <trkpt lat="48.25394" lon="-3.48653">
        <ele>110.20825195312</ele>
        <time>2012-04-18T11:33:24Z</time>
      </trkpt>
      <trkpt lat="48.25376" lon="-3.48677">
        <ele>107.32434082031</ele>
        <time>2012-04-18T11:33:32Z</time>
      </trkpt>
      <trkpt lat="48.25373" lon="-3.48682">
        <ele>107.32434082031</ele>
        <time>2012-04-18T11:33:34Z</time>
      </trkpt>
      <trkpt lat="48.25363" lon="-3.48696">
        <ele>108.28564453125</ele>
        <time>2012-04-18T11:33:40Z</time>
      </trkpt>
      <trkpt lat="48.25359" lon="-3.48709">
        <ele>108.76623535156</ele>
        <time>2012-04-18T11:33:44Z</time>
      </trkpt>
      <trkpt lat="48.25358" lon="-3.48713">
        <ele>108.76623535156</ele>
        <time>2012-04-18T11:33:51Z</time>
      </trkpt>
      <trkpt lat="48.25374" lon="-3.48746">
        <ele>107.32434082031</ele>
        <time>2012-04-18T11:34:05Z</time>
      </trkpt>
      <trkpt lat="48.25327" lon="-3.48853">
        <ele>103.47900390625</ele>
        <time>2012-04-18T11:34:17Z</time>
      </trkpt>
      <trkpt lat="48.25335" lon="-3.48939">
        <ele>102.99829101562</ele>
        <time>2012-04-18T11:34:33Z</time>
      </trkpt>
      <trkpt lat="48.25348" lon="-3.49022">
        <ele>99.6337890625</ele>
        <time>2012-04-18T11:34:47Z</time>
      </trkpt>
      <trkpt lat="48.25355" lon="-3.49108">
        <ele>98.672485351562</ele>
        <time>2012-04-18T11:35:01Z</time>
      </trkpt>
      <trkpt lat="48.25365" lon="-3.49201">
        <ele>98.672485351562</ele>
        <time>2012-04-18T11:35:16Z</time>
      </trkpt>
      <trkpt lat="48.25374" lon="-3.49272">
        <ele>97.711181640625</ele>
        <time>2012-04-18T11:35:28Z</time>
      </trkpt>
      <trkpt lat="48.2538" lon="-3.49357">
        <ele>97.23046875</ele>
        <time>2012-04-18T11:35:43Z</time>
      </trkpt>
      <trkpt lat="48.25371" lon="-3.49435">
        <ele>99.6337890625</ele>
        <time>2012-04-18T11:35:57Z</time>
      </trkpt>
      <trkpt lat="48.25368" lon="-3.49479">
        <ele>102.51770019531</ele>
        <time>2012-04-18T11:36:06Z</time>
      </trkpt>
      <trkpt lat="48.25359" lon="-3.49547">
        <ele>99.6337890625</ele>
        <time>2012-04-18T11:36:17Z</time>
      </trkpt>
      <trkpt lat="48.25353" lon="-3.49644">
        <ele>98.672485351562</ele>
        <time>2012-04-18T11:36:33Z</time>
      </trkpt>
      <trkpt lat="48.25343" lon="-3.49715">
        <ele>97.711181640625</ele>
        <time>2012-04-18T11:36:43Z</time>
      </trkpt>
      <trkpt lat="48.25346" lon="-3.49785">
        <ele>97.23046875</ele>
        <time>2012-04-18T11:36:53Z</time>
      </trkpt>
      <trkpt lat="48.25353" lon="-3.49805">
        <ele>97.711181640625</ele>
        <time>2012-04-18T11:36:57Z</time>
      </trkpt>
      <trkpt lat="48.25393" lon="-3.49855">
        <ele>96.269287109375</ele>
        <time>2012-04-18T11:37:11Z</time>
      </trkpt>
      <trkpt lat="48.25473" lon="-3.49914">
        <ele>99.153076171875</ele>
        <time>2012-04-18T11:37:33Z</time>
      </trkpt>
      <trkpt lat="48.25513" lon="-3.49946">
        <ele>101.55639648438</ele>
        <time>2012-04-18T11:37:45Z</time>
      </trkpt>
      <trkpt lat="48.25566" lon="-3.49984">
        <ele>102.037109375</ele>
        <time>2012-04-18T11:37:59Z</time>
      </trkpt>
      <trkpt lat="48.25616" lon="-3.50029">
        <ele>102.037109375</ele>
        <time>2012-04-18T11:38:13Z</time>
      </trkpt>
      <trkpt lat="48.25652" lon="-3.50121">
        <ele>101.55639648438</ele>
        <time>2012-04-18T11:38:31Z</time>
      </trkpt>
      <trkpt lat="48.25668" lon="-3.50167">
        <ele>102.037109375</ele>
        <time>2012-04-18T11:38:40Z</time>
      </trkpt>
      <trkpt lat="48.25674" lon="-3.50183">
        <ele>101.07568359375</ele>
        <time>2012-04-18T11:38:49Z</time>
      </trkpt>
      <trkpt lat="48.2569" lon="-3.50234">
        <ele>100.59509277344</ele>
        <time>2012-04-18T11:39:01Z</time>
      </trkpt>
      <trkpt lat="48.25712" lon="-3.50316">
        <ele>98.19189453125</ele>
        <time>2012-04-18T11:39:15Z</time>
      </trkpt>
      <trkpt lat="48.25721" lon="-3.50338">
        <ele>97.711181640625</ele>
        <time>2012-04-18T11:39:23Z</time>
      </trkpt>
      <trkpt lat="48.25721" lon="-3.5035">
        <ele>97.711181640625</ele>
        <time>2012-04-18T11:39:28Z</time>
      </trkpt>
      <trkpt lat="48.25724" lon="-3.50426">
        <ele>96.749877929688</ele>
        <time>2012-04-18T11:39:44Z</time>
      </trkpt>
      <trkpt lat="48.25688" lon="-3.50519">
        <ele>96.749877929688</ele>
        <time>2012-04-18T11:40:04Z</time>
      </trkpt>
      <trkpt lat="48.25632" lon="-3.50618">
        <ele>96.749877929688</ele>
        <time>2012-04-18T11:40:26Z</time>
      </trkpt>
      <trkpt lat="48.25581" lon="-3.50712">
        <ele>96.269287109375</ele>
        <time>2012-04-18T11:40:47Z</time>
      </trkpt>
      <trkpt lat="48.25569" lon="-3.50795">
        <ele>96.749877929688</ele>
        <time>2012-04-18T11:41:03Z</time>
      </trkpt>
      <trkpt lat="48.25592" lon="-3.50886">
        <ele>96.269287109375</ele>
        <time>2012-04-18T11:41:20Z</time>
      </trkpt>
      <trkpt lat="48.25607" lon="-3.50955">
        <ele>96.269287109375</ele>
        <time>2012-04-18T11:41:33Z</time>
      </trkpt>
      <trkpt lat="48.2563" lon="-3.51043">
        <ele>91.462524414062</ele>
        <time>2012-04-18T11:41:46Z</time>
      </trkpt>
      <trkpt lat="48.25649" lon="-3.51114">
        <ele>91.462524414062</ele>
        <time>2012-04-18T11:41:58Z</time>
      </trkpt>
      <trkpt lat="48.25665" lon="-3.51182">
        <ele>91.943237304688</ele>
        <time>2012-04-18T11:42:11Z</time>
      </trkpt>
      <trkpt lat="48.25682" lon="-3.51252">
        <ele>92.423950195312</ele>
        <time>2012-04-18T11:42:24Z</time>
      </trkpt>
      <trkpt lat="48.25703" lon="-3.51331">
        <ele>93.865844726562</ele>
        <time>2012-04-18T11:42:39Z</time>
      </trkpt>
      <trkpt lat="48.25718" lon="-3.51404">
        <ele>92.904541015625</ele>
        <time>2012-04-18T11:42:53Z</time>
      </trkpt>
      <trkpt lat="48.25718" lon="-3.5141">
        <ele>92.423950195312</ele>
        <time>2012-04-18T11:42:54Z</time>
      </trkpt>
      <trkpt lat="48.25702" lon="-3.51493">
        <ele>92.904541015625</ele>
        <time>2012-04-18T11:43:09Z</time>
      </trkpt>
      <trkpt lat="48.25677" lon="-3.51603">
        <ele>90.501342773438</ele>
        <time>2012-04-18T11:43:28Z</time>
      </trkpt>
      <trkpt lat="48.25666" lon="-3.51643">
        <ele>89.059326171875</ele>
        <time>2012-04-18T11:43:33Z</time>
      </trkpt>
      <trkpt lat="48.25646" lon="-3.51719">
        <ele>90.020629882812</ele>
        <time>2012-04-18T11:43:45Z</time>
      </trkpt>
      <trkpt lat="48.25623" lon="-3.51805">
        <ele>94.8271484375</ele>
        <time>2012-04-18T11:44:00Z</time>
      </trkpt>
      <trkpt lat="48.25605" lon="-3.51876">
        <ele>94.8271484375</ele>
        <time>2012-04-18T11:44:13Z</time>
      </trkpt>
      <trkpt lat="48.25589" lon="-3.51942">
        <ele>92.904541015625</ele>
        <time>2012-04-18T11:44:25Z</time>
      </trkpt>
      <trkpt lat="48.25573" lon="-3.52007">
        <ele>91.943237304688</ele>
        <time>2012-04-18T11:44:38Z</time>
      </trkpt>
      <trkpt lat="48.25546" lon="-3.52111">
        <ele>90.501342773438</ele>
        <time>2012-04-18T11:44:58Z</time>
      </trkpt>
      <trkpt lat="48.25532" lon="-3.52179">
        <ele>90.98193359375</ele>
        <time>2012-04-18T11:45:13Z</time>
      </trkpt>
      <trkpt lat="48.25534" lon="-3.52188">
        <ele>91.462524414062</ele>
        <time>2012-04-18T11:45:17Z</time>
      </trkpt>
      <trkpt lat="48.25532" lon="-3.52195">
        <ele>92.423950195312</ele>
        <time>2012-04-18T11:45:20Z</time>
      </trkpt>
      <trkpt lat="48.25537" lon="-3.52204">
        <ele>91.462524414062</ele>
        <time>2012-04-18T11:45:24Z</time>
      </trkpt>
      <trkpt lat="48.25538" lon="-3.52213">
        <ele>91.462524414062</ele>
        <time>2012-04-18T11:45:27Z</time>
      </trkpt>
      <trkpt lat="48.2554" lon="-3.52221">
        <ele>91.943237304688</ele>
        <time>2012-04-18T11:45:42Z</time>
      </trkpt>
      <trkpt lat="48.2554" lon="-3.5222">
        <ele>91.943237304688</ele>
        <time>2012-04-18T11:46:31Z</time>
      </trkpt>
      <trkpt lat="48.2554" lon="-3.52223">
        <ele>92.423950195312</ele>
        <time>2012-04-18T11:51:56Z</time>
      </trkpt>
      <trkpt lat="48.2554" lon="-3.5223">
        <ele>92.423950195312</ele>
        <time>2012-04-18T11:52:16Z</time>
      </trkpt>
      <trkpt lat="48.2554" lon="-3.5223">
        <ele>92.423950195312</ele>
        <time>2012-04-18T11:53:03Z</time>
      </trkpt>
      <trkpt lat="48.25544" lon="-3.52239">
        <ele>92.904541015625</ele>
        <time>2012-04-18T11:53:07Z</time>
      </trkpt>
      <trkpt lat="48.25551" lon="-3.52252">
        <ele>91.943237304688</ele>
        <time>2012-04-18T11:53:10Z</time>
      </trkpt>
      <trkpt lat="48.25604" lon="-3.52306">
        <ele>91.462524414062</ele>
        <time>2012-04-18T11:53:25Z</time>
      </trkpt>
      <trkpt lat="48.2567" lon="-3.52367">
        <ele>91.462524414062</ele>
        <time>2012-04-18T11:53:44Z</time>
      </trkpt>
      <trkpt lat="48.25717" lon="-3.52439">
        <ele>91.462524414062</ele>
        <time>2012-04-18T11:54:03Z</time>
      </trkpt>
      <trkpt lat="48.25701" lon="-3.52484">
        <ele>91.943237304688</ele>
        <time>2012-04-18T11:54:14Z</time>
      </trkpt>
      <trkpt lat="48.25654" lon="-3.52513">
        <ele>92.423950195312</ele>
        <time>2012-04-18T11:54:30Z</time>
      </trkpt>
      <trkpt lat="48.25596" lon="-3.52549">
        <ele>89.059326171875</ele>
        <time>2012-04-18T11:54:44Z</time>
      </trkpt>
      <trkpt lat="48.25522" lon="-3.52595">
        <ele>91.462524414062</ele>
        <time>2012-04-18T11:55:01Z</time>
      </trkpt>
      <trkpt lat="48.25431" lon="-3.52652">
        <ele>94.346557617188</ele>
        <time>2012-04-18T11:55:21Z</time>
      </trkpt>
      <trkpt lat="48.25404" lon="-3.52669">
        <ele>95.788452148438</ele>
        <time>2012-04-18T11:55:27Z</time>
      </trkpt>
      <trkpt lat="48.2533" lon="-3.52715">
        <ele>94.8271484375</ele>
        <time>2012-04-18T11:55:45Z</time>
      </trkpt>
      <trkpt lat="48.25278" lon="-3.52755">
        <ele>91.462524414062</ele>
        <time>2012-04-18T11:56:00Z</time>
      </trkpt>
      <trkpt lat="48.25249" lon="-3.52836">
        <ele>90.501342773438</ele>
        <time>2012-04-18T11:56:16Z</time>
      </trkpt>
      <trkpt lat="48.25267" lon="-3.52921">
        <ele>90.501342773438</ele>
        <time>2012-04-18T11:56:31Z</time>
      </trkpt>
      <trkpt lat="48.25279" lon="-3.52938">
        <ele>89.539916992188</ele>
        <time>2012-04-18T11:56:35Z</time>
      </trkpt>
      <trkpt lat="48.25344" lon="-3.52983">
        <ele>90.501342773438</ele>
        <time>2012-04-18T11:56:53Z</time>
      </trkpt>
      <trkpt lat="48.25406" lon="-3.53018">
        <ele>87.136596679688</ele>
        <time>2012-04-18T11:57:07Z</time>
      </trkpt>
      <trkpt lat="48.25468" lon="-3.53052">
        <ele>84.252685546875</ele>
        <time>2012-04-18T11:57:19Z</time>
      </trkpt>
      <trkpt lat="48.25553" lon="-3.531">
        <ele>84.7333984375</ele>
        <time>2012-04-18T11:57:39Z</time>
      </trkpt>
      <trkpt lat="48.25588" lon="-3.53137">
        <ele>84.7333984375</ele>
        <time>2012-04-18T11:57:51Z</time>
      </trkpt>
      <trkpt lat="48.2561" lon="-3.53189">
        <ele>83.291381835938</ele>
        <time>2012-04-18T11:58:02Z</time>
      </trkpt>
      <trkpt lat="48.25617" lon="-3.53283">
        <ele>83.291381835938</ele>
        <time>2012-04-18T11:58:19Z</time>
      </trkpt>
      <trkpt lat="48.2561" lon="-3.53368">
        <ele>82.330078125</ele>
        <time>2012-04-18T11:58:35Z</time>
      </trkpt>
      <trkpt lat="48.25602" lon="-3.53455">
        <ele>80.407470703125</ele>
        <time>2012-04-18T11:58:47Z</time>
      </trkpt>
      <trkpt lat="48.25596" lon="-3.53535">
        <ele>75.120239257812</ele>
        <time>2012-04-18T11:59:00Z</time>
      </trkpt>
      <trkpt lat="48.25582" lon="-3.53638">
        <ele>79.926635742188</ele>
        <time>2012-04-18T11:59:17Z</time>
      </trkpt>
      <trkpt lat="48.25556" lon="-3.53694">
        <ele>84.7333984375</ele>
        <time>2012-04-18T11:59:32Z</time>
      </trkpt>
      <trkpt lat="48.25551" lon="-3.53706">
        <ele>85.213989257812</ele>
        <time>2012-04-18T11:59:37Z</time>
      </trkpt>
      <trkpt lat="48.25509" lon="-3.5377">
        <ele>82.330078125</ele>
        <time>2012-04-18T11:59:49Z</time>
      </trkpt>
      <trkpt lat="48.25443" lon="-3.53857">
        <ele>82.810791015625</ele>
        <time>2012-04-18T12:00:08Z</time>
      </trkpt>
      <trkpt lat="48.25364" lon="-3.53961">
        <ele>80.88818359375</ele>
        <time>2012-04-18T12:00:30Z</time>
      </trkpt>
      <trkpt lat="48.25333" lon="-3.54035">
        <ele>80.88818359375</ele>
        <time>2012-04-18T12:00:43Z</time>
      </trkpt>
      <trkpt lat="48.2534" lon="-3.5412">
        <ele>81.849365234375</ele>
        <time>2012-04-18T12:00:57Z</time>
      </trkpt>
      <trkpt lat="48.25343" lon="-3.54219">
        <ele>81.849365234375</ele>
        <time>2012-04-18T12:01:14Z</time>
      </trkpt>
      <trkpt lat="48.2535" lon="-3.54412">
        <ele>81.849365234375</ele>
        <time>2012-04-18T12:01:46Z</time>
      </trkpt>
      <trkpt lat="48.25357" lon="-3.54602">
        <ele>84.252685546875</ele>
        <time>2012-04-18T12:02:15Z</time>
      </trkpt>
      <trkpt lat="48.25364" lon="-3.54777">
        <ele>84.252685546875</ele>
        <time>2012-04-18T12:02:42Z</time>
      </trkpt>
      <trkpt lat="48.25371" lon="-3.54919">
        <ele>80.88818359375</ele>
        <time>2012-04-18T12:03:01Z</time>
      </trkpt>
      <trkpt lat="48.2539" lon="-3.55037">
        <ele>80.88818359375</ele>
        <time>2012-04-18T12:03:20Z</time>
      </trkpt>
      <trkpt lat="48.25417" lon="-3.55161">
        <ele>81.368774414062</ele>
        <time>2012-04-18T12:03:44Z</time>
      </trkpt>
      <trkpt lat="48.25453" lon="-3.55326">
        <ele>81.368774414062</ele>
        <time>2012-04-18T12:04:14Z</time>
      </trkpt>
      <trkpt lat="48.25469" lon="-3.55448">
        <ele>81.368774414062</ele>
        <time>2012-04-18T12:04:36Z</time>
      </trkpt>
      <trkpt lat="48.2544" lon="-3.55546">
        <ele>80.407470703125</ele>
        <time>2012-04-18T12:04:53Z</time>
      </trkpt>
      <trkpt lat="48.25381" lon="-3.55687">
        <ele>78.004028320312</ele>
        <time>2012-04-18T12:05:20Z</time>
      </trkpt>
      <trkpt lat="48.25363" lon="-3.55725">
        <ele>78.004028320312</ele>
        <time>2012-04-18T12:05:33Z</time>
      </trkpt>
      <trkpt lat="48.25332" lon="-3.55801">
        <ele>75.600830078125</ele>
        <time>2012-04-18T12:05:48Z</time>
      </trkpt>
      <trkpt lat="48.25292" lon="-3.55895">
        <ele>75.600830078125</ele>
        <time>2012-04-18T12:06:05Z</time>
      </trkpt>
      <trkpt lat="48.25272" lon="-3.55944">
        <ele>78.004028320312</ele>
        <time>2012-04-18T12:06:19Z</time>
      </trkpt>
      <trkpt lat="48.25268" lon="-3.55953">
        <ele>78.004028320312</ele>
        <time>2012-04-18T12:06:32Z</time>
      </trkpt>
      <trkpt lat="48.25253" lon="-3.55983">
        <ele>76.081420898438</ele>
        <time>2012-04-18T12:07:34Z</time>
      </trkpt>
      <trkpt lat="48.25215" lon="-3.56071">
        <ele>76.562133789062</ele>
        <time>2012-04-18T12:07:51Z</time>
      </trkpt>
      <trkpt lat="48.25184" lon="-3.56143">
        <ele>77.042846679688</ele>
        <time>2012-04-18T12:08:04Z</time>
      </trkpt>
      <trkpt lat="48.25145" lon="-3.56234">
        <ele>77.042846679688</ele>
        <time>2012-04-18T12:08:20Z</time>
      </trkpt>
      <trkpt lat="48.25114" lon="-3.56304">
        <ele>78.965454101562</ele>
        <time>2012-04-18T12:08:32Z</time>
      </trkpt>
      <trkpt lat="48.25109" lon="-3.56332">
        <ele>79.926635742188</ele>
        <time>2012-04-18T12:08:36Z</time>
      </trkpt>
      <trkpt lat="48.25109" lon="-3.56443">
        <ele>78.965454101562</ele>
        <time>2012-04-18T12:08:53Z</time>
      </trkpt>
      <trkpt lat="48.25113" lon="-3.56599">
        <ele>78.004028320312</ele>
        <time>2012-04-18T12:09:19Z</time>
      </trkpt>
      <trkpt lat="48.25117" lon="-3.56744">
        <ele>75.120239257812</ele>
        <time>2012-04-18T12:09:40Z</time>
      </trkpt>
      <trkpt lat="48.25114" lon="-3.56796">
        <ele>75.120239257812</ele>
        <time>2012-04-18T12:09:47Z</time>
      </trkpt>
      <trkpt lat="48.25103" lon="-3.56833">
        <ele>73.67822265625</ele>
        <time>2012-04-18T12:09:53Z</time>
      </trkpt>
      <trkpt lat="48.25093" lon="-3.56854">
        <ele>73.67822265625</ele>
        <time>2012-04-18T12:09:57Z</time>
      </trkpt>
      <trkpt lat="48.25031" lon="-3.56925">
        <ele>74.158813476562</ele>
        <time>2012-04-18T12:10:16Z</time>
      </trkpt>
      <trkpt lat="48.25018" lon="-3.56939">
        <ele>73.197631835938</ele>
        <time>2012-04-18T12:10:20Z</time>
      </trkpt>
      <trkpt lat="48.24956" lon="-3.57001">
        <ele>76.562133789062</ele>
        <time>2012-04-18T12:10:39Z</time>
      </trkpt>
      <trkpt lat="48.24924" lon="-3.57091">
        <ele>75.120239257812</ele>
        <time>2012-04-18T12:10:53Z</time>
      </trkpt>
      <trkpt lat="48.24915" lon="-3.57099">
        <ele>75.120239257812</ele>
        <time>2012-04-18T12:10:56Z</time>
      </trkpt>
      <trkpt lat="48.24905" lon="-3.57183">
        <ele>75.600830078125</ele>
        <time>2012-04-18T12:11:13Z</time>
      </trkpt>
      <trkpt lat="48.24904" lon="-3.57199">
        <ele>76.081420898438</ele>
        <time>2012-04-18T12:11:16Z</time>
      </trkpt>
      <trkpt lat="48.24901" lon="-3.57256">
        <ele>77.5234375</ele>
        <time>2012-04-18T12:11:28Z</time>
      </trkpt>
      <trkpt lat="48.24901" lon="-3.5726">
        <ele>77.5234375</ele>
        <time>2012-04-18T12:11:29Z</time>
      </trkpt>
      <trkpt lat="48.24899" lon="-3.57315">
        <ele>79.926635742188</ele>
        <time>2012-04-18T12:11:40Z</time>
      </trkpt>
      <trkpt lat="48.24896" lon="-3.57388">
        <ele>77.5234375</ele>
        <time>2012-04-18T12:11:53Z</time>
      </trkpt>
      <trkpt lat="48.24874" lon="-3.5749">
        <ele>74.158813476562</ele>
        <time>2012-04-18T12:12:08Z</time>
      </trkpt>
      <trkpt lat="48.24867" lon="-3.57551">
        <ele>72.716918945312</ele>
        <time>2012-04-18T12:12:16Z</time>
      </trkpt>
      <trkpt lat="48.2486" lon="-3.57669">
        <ele>73.197631835938</ele>
        <time>2012-04-18T12:12:38Z</time>
      </trkpt>
      <trkpt lat="48.24854" lon="-3.57765">
        <ele>75.120239257812</ele>
        <time>2012-04-18T12:12:57Z</time>
      </trkpt>
      <trkpt lat="48.24851" lon="-3.57853">
        <ele>75.120239257812</ele>
        <time>2012-04-18T12:13:15Z</time>
      </trkpt>
      <trkpt lat="48.24849" lon="-3.57972">
        <ele>75.600830078125</ele>
        <time>2012-04-18T12:13:37Z</time>
      </trkpt>
      <trkpt lat="48.24848" lon="-3.58026">
        <ele>77.5234375</ele>
        <time>2012-04-18T12:13:55Z</time>
      </trkpt>
      <trkpt lat="48.24848" lon="-3.58034">
        <ele>79.446044921875</ele>
        <time>2012-04-18T12:14:07Z</time>
      </trkpt>
      <trkpt lat="48.24848" lon="-3.58034">
        <ele>78.484741210938</ele>
        <time>2012-04-18T12:14:17Z</time>
      </trkpt>
      <trkpt lat="48.24848" lon="-3.5806">
        <ele>77.042846679688</ele>
        <time>2012-04-18T12:14:22Z</time>
      </trkpt>
      <trkpt lat="48.24808" lon="-3.58164">
        <ele>73.67822265625</ele>
        <time>2012-04-18T12:14:35Z</time>
      </trkpt>
      <trkpt lat="48.24791" lon="-3.58213">
        <ele>72.716918945312</ele>
        <time>2012-04-18T12:14:44Z</time>
      </trkpt>
      <trkpt lat="48.2478" lon="-3.58231">
        <ele>72.716918945312</ele>
        <time>2012-04-18T12:14:48Z</time>
      </trkpt>
      <trkpt lat="48.24725" lon="-3.58347">
        <ele>74.158813476562</ele>
        <time>2012-04-18T12:15:06Z</time>
      </trkpt>
      <trkpt lat="48.24721" lon="-3.5835">
        <ele>73.67822265625</ele>
        <time>2012-04-18T12:15:07Z</time>
      </trkpt>
      <trkpt lat="48.24689" lon="-3.58369">
        <ele>72.716918945312</ele>
        <time>2012-04-18T12:15:14Z</time>
      </trkpt>
      <trkpt lat="48.24648" lon="-3.58424">
        <ele>76.562133789062</ele>
        <time>2012-04-18T12:15:28Z</time>
      </trkpt>
      <trkpt lat="48.24607" lon="-3.58483">
        <ele>75.120239257812</ele>
        <time>2012-04-18T12:15:42Z</time>
      </trkpt>
      <trkpt lat="48.24495" lon="-3.585">
        <ele>71.755493164062</ele>
        <time>2012-04-18T12:16:03Z</time>
      </trkpt>
      <trkpt lat="48.24484" lon="-3.58535">
        <ele>72.236206054688</ele>
        <time>2012-04-18T12:16:09Z</time>
      </trkpt>
      <trkpt lat="48.24484" lon="-3.58605">
        <ele>72.236206054688</ele>
        <time>2012-04-18T12:16:21Z</time>
      </trkpt>
      <trkpt lat="48.245" lon="-3.58665">
        <ele>72.716918945312</ele>
        <time>2012-04-18T12:16:35Z</time>
      </trkpt>
      <trkpt lat="48.24519" lon="-3.58688">
        <ele>73.67822265625</ele>
        <time>2012-04-18T12:16:46Z</time>
      </trkpt>
      <trkpt lat="48.24523" lon="-3.58685">
        <ele>73.67822265625</ele>
        <time>2012-04-18T12:16:59Z</time>
      </trkpt>
      <trkpt lat="48.24523" lon="-3.58685">
        <ele>73.67822265625</ele>
        <time>2012-04-18T12:17:10Z</time>
      </trkpt>
      <trkpt lat="48.24533" lon="-3.5865">
        <ele>74.639526367188</ele>
        <time>2012-04-18T12:17:27Z</time>
      </trkpt>
      <trkpt lat="48.24544" lon="-3.58621">
        <ele>74.639526367188</ele>
        <time>2012-04-18T12:17:40Z</time>
      </trkpt>
      <trkpt lat="48.24553" lon="-3.58597">
        <ele>77.5234375</ele>
        <time>2012-04-18T12:17:52Z</time>
      </trkpt>
      <trkpt lat="48.24557" lon="-3.58571">
        <ele>78.965454101562</ele>
        <time>2012-04-18T12:18:06Z</time>
      </trkpt>
      <trkpt lat="48.24558" lon="-3.58567">
        <ele>78.004028320312</ele>
        <time>2012-04-18T12:18:24Z</time>
      </trkpt>
      <trkpt lat="48.24559" lon="-3.58565">
        <ele>78.004028320312</ele>
        <time>2012-04-18T12:18:58Z</time>
      </trkpt>
      <trkpt lat="48.24564" lon="-3.58557">
        <ele>79.926635742188</ele>
        <time>2012-04-18T12:21:42Z</time>
      </trkpt>
      <trkpt lat="48.24566" lon="-3.58555">
        <ele>79.926635742188</ele>
        <time>2012-04-18T12:21:45Z</time>
      </trkpt>
      <trkpt lat="48.2457" lon="-3.58548">
        <ele>81.368774414062</ele>
        <time>2012-04-18T12:22:01Z</time>
      </trkpt>
      <trkpt lat="48.24582" lon="-3.58521">
        <ele>82.330078125</ele>
        <time>2012-04-18T12:24:29Z</time>
      </trkpt>
      <trkpt lat="48.2462" lon="-3.58445">
        <ele>83.77197265625</ele>
        <time>2012-04-18T12:24:51Z</time>
      </trkpt>
      <trkpt lat="48.2467" lon="-3.5839">
        <ele>83.77197265625</ele>
        <time>2012-04-18T12:25:12Z</time>
      </trkpt>
      <trkpt lat="48.24726" lon="-3.58347">
        <ele>88.098022460938</ele>
        <time>2012-04-18T12:25:32Z</time>
      </trkpt>
      <trkpt lat="48.24759" lon="-3.58321">
        <ele>88.578735351562</ele>
        <time>2012-04-18T12:25:45Z</time>
      </trkpt>
      <trkpt lat="48.248" lon="-3.583">
        <ele>93.865844726562</ele>
        <time>2012-04-18T12:25:59Z</time>
      </trkpt>
      <trkpt lat="48.24863" lon="-3.58294">
        <ele>93.865844726562</ele>
        <time>2012-04-18T12:26:20Z</time>
      </trkpt>
      <trkpt lat="48.24936" lon="-3.58328">
        <ele>95.788452148438</ele>
        <time>2012-04-18T12:26:45Z</time>
      </trkpt>
      <trkpt lat="48.25006" lon="-3.58351">
        <ele>96.269287109375</ele>
        <time>2012-04-18T12:27:10Z</time>
      </trkpt>
      <trkpt lat="48.25042" lon="-3.58348">
        <ele>95.788452148438</ele>
        <time>2012-04-18T12:27:23Z</time>
      </trkpt>
      <trkpt lat="48.25067" lon="-3.58337">
        <ele>95.307739257812</ele>
        <time>2012-04-18T12:27:35Z</time>
      </trkpt>
      <trkpt lat="48.25077" lon="-3.58335">
        <ele>95.307739257812</ele>
        <time>2012-04-18T12:27:40Z</time>
      </trkpt>
      <trkpt lat="48.25078" lon="-3.58331">
        <ele>95.307739257812</ele>
        <time>2012-04-18T12:27:42Z</time>
      </trkpt>
      <trkpt lat="48.25103" lon="-3.58314">
        <ele>95.307739257812</ele>
        <time>2012-04-18T12:27:54Z</time>
      </trkpt>
      <trkpt lat="48.25146" lon="-3.58261">
        <ele>98.672485351562</ele>
        <time>2012-04-18T12:28:13Z</time>
      </trkpt>
      <trkpt lat="48.25179" lon="-3.58199">
        <ele>99.153076171875</ele>
        <time>2012-04-18T12:28:31Z</time>
      </trkpt>
      <trkpt lat="48.25217" lon="-3.58137">
        <ele>100.59509277344</ele>
        <time>2012-04-18T12:28:50Z</time>
      </trkpt>
      <trkpt lat="48.25251" lon="-3.58096">
        <ele>101.07568359375</ele>
        <time>2012-04-18T12:29:05Z</time>
      </trkpt>
      <trkpt lat="48.25309" lon="-3.58042">
        <ele>101.55639648438</ele>
        <time>2012-04-18T12:29:28Z</time>
      </trkpt>
      <trkpt lat="48.25359" lon="-3.58">
        <ele>103.47900390625</ele>
        <time>2012-04-18T12:29:47Z</time>
      </trkpt>
      <trkpt lat="48.25405" lon="-3.57961">
        <ele>104.4404296875</ele>
        <time>2012-04-18T12:30:05Z</time>
      </trkpt>
      <trkpt lat="48.25436" lon="-3.57929">
        <ele>103.47900390625</ele>
        <time>2012-04-18T12:30:21Z</time>
      </trkpt>
      <trkpt lat="48.25441" lon="-3.57929">
        <ele>103.47900390625</ele>
        <time>2012-04-18T12:30:28Z</time>
      </trkpt>
      <trkpt lat="48.25448" lon="-3.57916">
        <ele>102.037109375</ele>
        <time>2012-04-18T12:30:34Z</time>
      </trkpt>
      <trkpt lat="48.25457" lon="-3.57914">
        <ele>102.037109375</ele>
        <time>2012-04-18T12:30:38Z</time>
      </trkpt>
      <trkpt lat="48.25464" lon="-3.57908">
        <ele>102.037109375</ele>
        <time>2012-04-18T12:30:42Z</time>
      </trkpt>
      <trkpt lat="48.25467" lon="-3.57905">
        <ele>102.51770019531</ele>
        <time>2012-04-18T12:30:54Z</time>
      </trkpt>
      <trkpt lat="48.25475" lon="-3.57894">
        <ele>105.88244628906</ele>
        <time>2012-04-18T12:31:09Z</time>
      </trkpt>
      <trkpt lat="48.25497" lon="-3.57876">
        <ele>108.76623535156</ele>
        <time>2012-04-18T12:31:30Z</time>
      </trkpt>
      <trkpt lat="48.25511" lon="-3.57865">
        <ele>108.76623535156</ele>
        <time>2012-04-18T12:31:46Z</time>
      </trkpt>
      <trkpt lat="48.25539" lon="-3.57843">
        <ele>109.24694824219</ele>
        <time>2012-04-18T12:31:58Z</time>
      </trkpt>
      <trkpt lat="48.25573" lon="-3.57821">
        <ele>109.72766113281</ele>
        <time>2012-04-18T12:32:11Z</time>
      </trkpt>
      <trkpt lat="48.25606" lon="-3.57811">
        <ele>108.28564453125</ele>
        <time>2012-04-18T12:32:24Z</time>
      </trkpt>
      <trkpt lat="48.25654" lon="-3.57807">
        <ele>109.72766113281</ele>
        <time>2012-04-18T12:32:42Z</time>
      </trkpt>
      <trkpt lat="48.25687" lon="-3.57809">
        <ele>109.24694824219</ele>
        <time>2012-04-18T12:32:54Z</time>
      </trkpt>
      <trkpt lat="48.25719" lon="-3.57818">
        <ele>110.68884277344</ele>
        <time>2012-04-18T12:33:07Z</time>
      </trkpt>
      <trkpt lat="48.25745" lon="-3.57825">
        <ele>112.61157226562</ele>
        <time>2012-04-18T12:33:17Z</time>
      </trkpt>
      <trkpt lat="48.25773" lon="-3.57842">
        <ele>115.49560546875</ele>
        <time>2012-04-18T12:33:27Z</time>
      </trkpt>
      <trkpt lat="48.25795" lon="-3.57851">
        <ele>116.9375</ele>
        <time>2012-04-18T12:33:38Z</time>
      </trkpt>
      <trkpt lat="48.25832" lon="-3.57872">
        <ele>120.30212402344</ele>
        <time>2012-04-18T12:33:52Z</time>
      </trkpt>
      <trkpt lat="48.25867" lon="-3.5788">
        <ele>119.82141113281</ele>
        <time>2012-04-18T12:34:04Z</time>
      </trkpt>
      <trkpt lat="48.259" lon="-3.57878">
        <ele>120.30212402344</ele>
        <time>2012-04-18T12:34:16Z</time>
      </trkpt>
      <trkpt lat="48.25937" lon="-3.57873">
        <ele>118.86010742188</ele>
        <time>2012-04-18T12:34:29Z</time>
      </trkpt>
      <trkpt lat="48.25944" lon="-3.57879">
        <ele>118.86010742188</ele>
        <time>2012-04-18T12:34:34Z</time>
      </trkpt>
      <trkpt lat="48.25946" lon="-3.57885">
        <ele>118.86010742188</ele>
        <time>2012-04-18T12:34:37Z</time>
      </trkpt>
      <trkpt lat="48.25947" lon="-3.57896">
        <ele>119.3408203125</ele>
        <time>2012-04-18T12:34:41Z</time>
      </trkpt>
      <trkpt lat="48.25942" lon="-3.57926">
        <ele>119.82141113281</ele>
        <time>2012-04-18T12:34:52Z</time>
      </trkpt>
      <trkpt lat="48.25964" lon="-3.57935">
        <ele>120.78283691406</ele>
        <time>2012-04-18T12:35:04Z</time>
      </trkpt>
      <trkpt lat="48.25964" lon="-3.57936">
        <ele>123.18615722656</ele>
        <time>2012-04-18T12:35:16Z</time>
      </trkpt>
      <trkpt lat="48.25953" lon="-3.57946">
        <ele>120.78283691406</ele>
        <time>2012-04-18T12:35:30Z</time>
      </trkpt>
      <trkpt lat="48.25944" lon="-3.57945">
        <ele>118.37939453125</ele>
        <time>2012-04-18T12:35:42Z</time>
      </trkpt>
      <trkpt lat="48.25941" lon="-3.57947">
        <ele>118.37939453125</ele>
        <time>2012-04-18T12:35:45Z</time>
      </trkpt>
      <trkpt lat="48.25938" lon="-3.57944">
        <ele>118.37939453125</ele>
        <time>2012-04-18T12:35:49Z</time>
      </trkpt>
      <trkpt lat="48.25935" lon="-3.57947">
        <ele>121.26354980469</ele>
        <time>2012-04-18T12:36:04Z</time>
      </trkpt>
      <trkpt lat="48.25923" lon="-3.57942">
        <ele>126.06994628906</ele>
        <time>2012-04-18T12:36:16Z</time>
      </trkpt>
      <trkpt lat="48.2592" lon="-3.57941">
        <ele>127.51196289062</ele>
        <time>2012-04-18T12:36:29Z</time>
      </trkpt>
      <trkpt lat="48.25916" lon="-3.57938">
        <ele>129.91528320312</ele>
        <time>2012-04-18T12:36:44Z</time>
      </trkpt>
      <trkpt lat="48.2592" lon="-3.57937">
        <ele>129.91528320312</ele>
        <time>2012-04-18T12:37:00Z</time>
      </trkpt>
      <trkpt lat="48.25917" lon="-3.57943">
        <ele>131.837890625</ele>
        <time>2012-04-18T12:37:13Z</time>
      </trkpt>
      <trkpt lat="48.25933" lon="-3.57959">
        <ele>128.9541015625</ele>
        <time>2012-04-18T12:37:29Z</time>
      </trkpt>
      <trkpt lat="48.25933" lon="-3.57961">
        <ele>127.99255371094</ele>
        <time>2012-04-18T12:37:47Z</time>
      </trkpt>
      <trkpt lat="48.25928" lon="-3.57949">
        <ele>128.47338867188</ele>
        <time>2012-04-18T12:38:00Z</time>
      </trkpt>
      <trkpt lat="48.25927" lon="-3.57932">
        <ele>127.99255371094</ele>
        <time>2012-04-18T12:38:16Z</time>
      </trkpt>
      <trkpt lat="48.25926" lon="-3.57932">
        <ele>129.43469238281</ele>
        <time>2012-04-18T12:38:32Z</time>
      </trkpt>
      <trkpt lat="48.25923" lon="-3.57932">
        <ele>128.47338867188</ele>
        <time>2012-04-18T12:38:44Z</time>
      </trkpt>
      <trkpt lat="48.25925" lon="-3.57931">
        <ele>125.58935546875</ele>
        <time>2012-04-18T12:38:57Z</time>
      </trkpt>
      <trkpt lat="48.25927" lon="-3.57931">
        <ele>123.66674804688</ele>
        <time>2012-04-18T12:39:02Z</time>
      </trkpt>
      <trkpt lat="48.25928" lon="-3.57939">
        <ele>119.3408203125</ele>
        <time>2012-04-18T12:39:12Z</time>
      </trkpt>
      <trkpt lat="48.25918" lon="-3.57939">
        <ele>118.37939453125</ele>
        <time>2012-04-18T12:39:25Z</time>
      </trkpt>
      <trkpt lat="48.25921" lon="-3.57942">
        <ele>116.9375</ele>
        <time>2012-04-18T12:39:36Z</time>
      </trkpt>
      <trkpt lat="48.25924" lon="-3.5794">
        <ele>116.45678710938</ele>
        <time>2012-04-18T12:39:50Z</time>
      </trkpt>
      <trkpt lat="48.25923" lon="-3.57942">
        <ele>117.41821289062</ele>
        <time>2012-04-18T12:39:54Z</time>
      </trkpt>
      <trkpt lat="48.25913" lon="-3.57937">
        <ele>120.30212402344</ele>
        <time>2012-04-18T12:40:05Z</time>
      </trkpt>
      <trkpt lat="48.25907" lon="-3.57941">
        <ele>122.70544433594</ele>
        <time>2012-04-18T12:40:18Z</time>
      </trkpt>
      <trkpt lat="48.25922" lon="-3.57941">
        <ele>122.22473144531</ele>
        <time>2012-04-18T12:40:35Z</time>
      </trkpt>
      <trkpt lat="48.2593" lon="-3.57944">
        <ele>125.10876464844</ele>
        <time>2012-04-18T12:41:21Z</time>
      </trkpt>
      <trkpt lat="48.25944" lon="-3.57943">
        <ele>132.31860351562</ele>
        <time>2012-04-18T12:42:17Z</time>
      </trkpt>
      <trkpt lat="48.25984" lon="-3.57958">
        <ele>125.58935546875</ele>
        <time>2012-04-18T12:42:34Z</time>
      </trkpt>
      <trkpt lat="48.25992" lon="-3.57939">
        <ele>125.10876464844</ele>
        <time>2012-04-18T12:42:38Z</time>
      </trkpt>
      <trkpt lat="48.25997" lon="-3.57927">
        <ele>123.66674804688</ele>
        <time>2012-04-18T12:42:42Z</time>
      </trkpt>
      <trkpt lat="48.26001" lon="-3.57917">
        <ele>123.18615722656</ele>
        <time>2012-04-18T12:42:47Z</time>
      </trkpt>
      <trkpt lat="48.26001" lon="-3.57904">
        <ele>122.22473144531</ele>
        <time>2012-04-18T12:42:51Z</time>
      </trkpt>
      <trkpt lat="48.26006" lon="-3.57874">
        <ele>119.82141113281</ele>
        <time>2012-04-18T12:42:59Z</time>
      </trkpt>
      <trkpt lat="48.26039" lon="-3.57794">
        <ele>118.86010742188</ele>
        <time>2012-04-18T12:43:19Z</time>
      </trkpt>
      <trkpt lat="48.26084" lon="-3.57735">
        <ele>120.78283691406</ele>
        <time>2012-04-18T12:43:39Z</time>
      </trkpt>
      <trkpt lat="48.26125" lon="-3.57677">
        <ele>121.26354980469</ele>
        <time>2012-04-18T12:43:59Z</time>
      </trkpt>
      <trkpt lat="48.26127" lon="-3.57674">
        <ele>121.26354980469</ele>
        <time>2012-04-18T12:44:00Z</time>
      </trkpt>
      <trkpt lat="48.26148" lon="-3.57651">
        <ele>121.26354980469</ele>
        <time>2012-04-18T12:44:12Z</time>
      </trkpt>
      <trkpt lat="48.26152" lon="-3.5765">
        <ele>121.26354980469</ele>
        <time>2012-04-18T12:44:15Z</time>
      </trkpt>
      <trkpt lat="48.26158" lon="-3.57641">
        <ele>121.26354980469</ele>
        <time>2012-04-18T12:44:20Z</time>
      </trkpt>
      <trkpt lat="48.26203" lon="-3.57582">
        <ele>121.744140625</ele>
        <time>2012-04-18T12:44:38Z</time>
      </trkpt>
      <trkpt lat="48.26271" lon="-3.57498">
        <ele>119.3408203125</ele>
        <time>2012-04-18T12:45:01Z</time>
      </trkpt>
      <trkpt lat="48.26313" lon="-3.57448">
        <ele>115.97619628906</ele>
        <time>2012-04-18T12:45:15Z</time>
      </trkpt>
      <trkpt lat="48.26354" lon="-3.57395">
        <ele>118.86010742188</ele>
        <time>2012-04-18T12:45:30Z</time>
      </trkpt>
      <trkpt lat="48.26404" lon="-3.57331">
        <ele>120.78283691406</ele>
        <time>2012-04-18T12:45:47Z</time>
      </trkpt>
      <trkpt lat="48.26459" lon="-3.57258">
        <ele>121.26354980469</ele>
        <time>2012-04-18T12:46:07Z</time>
      </trkpt>
      <trkpt lat="48.26497" lon="-3.57195">
        <ele>123.18615722656</ele>
        <time>2012-04-18T12:46:23Z</time>
      </trkpt>
      <trkpt lat="48.265" lon="-3.57186">
        <ele>123.66674804688</ele>
        <time>2012-04-18T12:46:26Z</time>
      </trkpt>
      <trkpt lat="48.26515" lon="-3.57159">
        <ele>123.18615722656</ele>
        <time>2012-04-18T12:46:38Z</time>
      </trkpt>
      <trkpt lat="48.2652" lon="-3.57156">
        <ele>123.18615722656</ele>
        <time>2012-04-18T12:46:42Z</time>
      </trkpt>
      <trkpt lat="48.2654" lon="-3.57099">
        <ele>123.66674804688</ele>
        <time>2012-04-18T12:46:56Z</time>
      </trkpt>
      <trkpt lat="48.26563" lon="-3.57012">
        <ele>124.14733886719</ele>
        <time>2012-04-18T12:47:15Z</time>
      </trkpt>
      <trkpt lat="48.26581" lon="-3.56951">
        <ele>124.62805175781</ele>
        <time>2012-04-18T12:47:28Z</time>
      </trkpt>
      <trkpt lat="48.26607" lon="-3.56849">
        <ele>121.744140625</ele>
        <time>2012-04-18T12:47:48Z</time>
      </trkpt>
      <trkpt lat="48.26615" lon="-3.5677">
        <ele>122.70544433594</ele>
        <time>2012-04-18T12:48:04Z</time>
      </trkpt>
      <trkpt lat="48.26618" lon="-3.56758">
        <ele>123.18615722656</ele>
        <time>2012-04-18T12:48:08Z</time>
      </trkpt>
      <trkpt lat="48.26621" lon="-3.5674">
        <ele>122.70544433594</ele>
        <time>2012-04-18T12:48:18Z</time>
      </trkpt>
      <trkpt lat="48.26622" lon="-3.56734">
        <ele>122.22473144531</ele>
        <time>2012-04-18T12:48:22Z</time>
      </trkpt>
      <trkpt lat="48.26624" lon="-3.56724">
        <ele>122.22473144531</ele>
        <time>2012-04-18T12:48:26Z</time>
      </trkpt>
      <trkpt lat="48.2664" lon="-3.56657">
        <ele>121.26354980469</ele>
        <time>2012-04-18T12:48:39Z</time>
      </trkpt>
      <trkpt lat="48.2668" lon="-3.56542">
        <ele>118.86010742188</ele>
        <time>2012-04-18T12:48:57Z</time>
      </trkpt>
      <trkpt lat="48.26711" lon="-3.56486">
        <ele>117.89880371094</ele>
        <time>2012-04-18T12:49:11Z</time>
      </trkpt>
      <trkpt lat="48.26738" lon="-3.56457">
        <ele>117.41821289062</ele>
        <time>2012-04-18T12:49:20Z</time>
      </trkpt>
      <trkpt lat="48.26782" lon="-3.56413">
        <ele>116.45678710938</ele>
        <time>2012-04-18T12:49:33Z</time>
      </trkpt>
      <trkpt lat="48.2684" lon="-3.56376">
        <ele>116.45678710938</ele>
        <time>2012-04-18T12:49:49Z</time>
      </trkpt>
      <trkpt lat="48.26881" lon="-3.5635">
        <ele>115.97619628906</ele>
        <time>2012-04-18T12:50:00Z</time>
      </trkpt>
      <trkpt lat="48.26923" lon="-3.56323">
        <ele>115.97619628906</ele>
        <time>2012-04-18T12:50:12Z</time>
      </trkpt>
      <trkpt lat="48.26961" lon="-3.56298">
        <ele>115.49560546875</ele>
        <time>2012-04-18T12:50:21Z</time>
      </trkpt>
      <trkpt lat="48.27011" lon="-3.56267">
        <ele>115.01489257812</ele>
        <time>2012-04-18T12:50:34Z</time>
      </trkpt>
      <trkpt lat="48.27032" lon="-3.56253">
        <ele>116.9375</ele>
        <time>2012-04-18T12:50:46Z</time>
      </trkpt>
      <trkpt lat="48.27032" lon="-3.56253">
        <ele>117.89880371094</ele>
        <time>2012-04-18T12:50:53Z</time>
      </trkpt>
      <trkpt lat="48.27032" lon="-3.56253">
        <ele>117.89880371094</ele>
        <time>2012-04-18T12:50:57Z</time>
      </trkpt>
      <trkpt lat="48.27129" lon="-3.56257">
        <ele>117.89880371094</ele>
        <time>2012-04-18T12:51:12Z</time>
      </trkpt>
      <trkpt lat="48.27169" lon="-3.56236">
        <ele>117.41821289062</ele>
        <time>2012-04-18T12:51:31Z</time>
      </trkpt>
      <trkpt lat="48.27169" lon="-3.56236">
        <ele>114.5341796875</ele>
        <time>2012-04-18T12:51:45Z</time>
      </trkpt>
      <trkpt lat="48.2724" lon="-3.56172">
        <ele>117.89880371094</ele>
        <time>2012-04-18T12:51:59Z</time>
      </trkpt>
      <trkpt lat="48.2727" lon="-3.5617">
        <ele>119.82141113281</ele>
        <time>2012-04-18T12:52:12Z</time>
      </trkpt>
      <trkpt lat="48.27274" lon="-3.5617">
        <ele>120.30212402344</ele>
        <time>2012-04-18T12:52:14Z</time>
      </trkpt>
      <trkpt lat="48.27282" lon="-3.56162">
        <ele>121.744140625</ele>
        <time>2012-04-18T12:52:19Z</time>
      </trkpt>
      <trkpt lat="48.27288" lon="-3.56163">
        <ele>122.22473144531</ele>
        <time>2012-04-18T12:52:23Z</time>
      </trkpt>
      <trkpt lat="48.2732" lon="-3.56187">
        <ele>124.14733886719</ele>
        <time>2012-04-18T12:52:37Z</time>
      </trkpt>
      <trkpt lat="48.27328" lon="-3.56199">
        <ele>124.14733886719</ele>
        <time>2012-04-18T12:52:40Z</time>
      </trkpt>
      <trkpt lat="48.27355" lon="-3.56216">
        <ele>124.14733886719</ele>
        <time>2012-04-18T12:52:49Z</time>
      </trkpt>
      <trkpt lat="48.27354" lon="-3.56228">
        <ele>124.14733886719</ele>
        <time>2012-04-18T12:52:53Z</time>
      </trkpt>
      <trkpt lat="48.27352" lon="-3.56235">
        <ele>123.66674804688</ele>
        <time>2012-04-18T12:52:56Z</time>
      </trkpt>
      <trkpt lat="48.27355" lon="-3.56239">
        <ele>123.18615722656</ele>
        <time>2012-04-18T12:53:09Z</time>
      </trkpt>
      <trkpt lat="48.27355" lon="-3.56239">
        <ele>123.18615722656</ele>
        <time>2012-04-18T12:53:26Z</time>
      </trkpt>
      <trkpt lat="48.27357" lon="-3.56262">
        <ele>122.22473144531</ele>
        <time>2012-04-18T12:53:34Z</time>
      </trkpt>
      <trkpt lat="48.27333" lon="-3.56382">
        <ele>115.97619628906</ele>
        <time>2012-04-18T12:53:52Z</time>
      </trkpt>
      <trkpt lat="48.27302" lon="-3.56517">
        <ele>110.68884277344</ele>
        <time>2012-04-18T12:54:12Z</time>
      </trkpt>
      <trkpt lat="48.27274" lon="-3.56662">
        <ele>106.36303710938</ele>
        <time>2012-04-18T12:54:33Z</time>
      </trkpt>
      <trkpt lat="48.2727" lon="-3.56684">
        <ele>106.36303710938</ele>
        <time>2012-04-18T12:54:39Z</time>
      </trkpt>
      <trkpt lat="48.27266" lon="-3.56703">
        <ele>105.88244628906</ele>
        <time>2012-04-18T12:54:44Z</time>
      </trkpt>
      <trkpt lat="48.27261" lon="-3.56691">
        <ele>106.36303710938</ele>
        <time>2012-04-18T12:54:49Z</time>
      </trkpt>
      <trkpt lat="48.27258" lon="-3.56734">
        <ele>106.36303710938</ele>
        <time>2012-04-18T12:54:55Z</time>
      </trkpt>
      <trkpt lat="48.27237" lon="-3.56825">
        <ele>103.95971679688</ele>
        <time>2012-04-18T12:55:13Z</time>
      </trkpt>
      <trkpt lat="48.27202" lon="-3.56988">
        <ele>100.59509277344</ele>
        <time>2012-04-18T12:55:41Z</time>
      </trkpt>
      <trkpt lat="48.2718" lon="-3.57092">
        <ele>98.672485351562</ele>
        <time>2012-04-18T12:56:03Z</time>
      </trkpt>
      <trkpt lat="48.2716" lon="-3.57115">
        <ele>98.672485351562</ele>
        <time>2012-04-18T12:56:09Z</time>
      </trkpt>
      <trkpt lat="48.27178" lon="-3.57103">
        <ele>98.672485351562</ele>
        <time>2012-04-18T12:56:15Z</time>
      </trkpt>
      <trkpt lat="48.27172" lon="-3.57149">
        <ele>99.6337890625</ele>
        <time>2012-04-18T12:56:25Z</time>
      </trkpt>
      <trkpt lat="48.27187" lon="-3.57133">
        <ele>99.6337890625</ele>
        <time>2012-04-18T12:56:37Z</time>
      </trkpt>
      <trkpt lat="48.27187" lon="-3.57133">
        <ele>100.11450195312</ele>
        <time>2012-04-18T12:56:39Z</time>
      </trkpt>
      <trkpt lat="48.27187" lon="-3.57133">
        <ele>100.11450195312</ele>
        <time>2012-04-18T12:56:41Z</time>
      </trkpt>
      <trkpt lat="48.27169" lon="-3.5717">
        <ele>99.6337890625</ele>
        <time>2012-04-18T12:56:46Z</time>
      </trkpt>
      <trkpt lat="48.27145" lon="-3.57298">
        <ele>97.711181640625</ele>
        <time>2012-04-18T12:57:07Z</time>
      </trkpt>
      <trkpt lat="48.27117" lon="-3.57479">
        <ele>96.749877929688</ele>
        <time>2012-04-18T12:57:36Z</time>
      </trkpt>
      <trkpt lat="48.27139" lon="-3.57541">
        <ele>96.269287109375</ele>
        <time>2012-04-18T12:57:50Z</time>
      </trkpt>
      <trkpt lat="48.27144" lon="-3.57538">
        <ele>96.749877929688</ele>
        <time>2012-04-18T12:57:56Z</time>
      </trkpt>
      <trkpt lat="48.27204" lon="-3.57505">
        <ele>101.07568359375</ele>
        <time>2012-04-18T12:58:20Z</time>
      </trkpt>
      <trkpt lat="48.27242" lon="-3.57484">
        <ele>104.92102050781</ele>
        <time>2012-04-18T12:58:42Z</time>
      </trkpt>
      <trkpt lat="48.27276" lon="-3.57466">
        <ele>108.76623535156</ele>
        <time>2012-04-18T12:59:04Z</time>
      </trkpt>
      <trkpt lat="48.27303" lon="-3.57451">
        <ele>112.13098144531</ele>
        <time>2012-04-18T12:59:25Z</time>
      </trkpt>
      <trkpt lat="48.27325" lon="-3.57439">
        <ele>114.5341796875</ele>
        <time>2012-04-18T12:59:40Z</time>
      </trkpt>
      <trkpt lat="48.27327" lon="-3.57438">
        <ele>115.01489257812</ele>
        <time>2012-04-18T12:59:41Z</time>
      </trkpt>
      <trkpt lat="48.27336" lon="-3.57429">
        <ele>115.97619628906</ele>
        <time>2012-04-18T12:59:56Z</time>
      </trkpt>
      <trkpt lat="48.27336" lon="-3.57429">
        <ele>121.26354980469</ele>
        <time>2012-04-18T13:00:27Z</time>
      </trkpt>
      <trkpt lat="48.27336" lon="-3.57429">
        <ele>126.55065917969</ele>
        <time>2012-04-18T13:00:55Z</time>
      </trkpt>
      <trkpt lat="48.27417" lon="-3.57366">
        <ele>129.91528320312</ele>
        <time>2012-04-18T13:01:23Z</time>
      </trkpt>
      <trkpt lat="48.27417" lon="-3.57366">
        <ele>135.68310546875</ele>
        <time>2012-04-18T13:01:57Z</time>
      </trkpt>
      <trkpt lat="48.27417" lon="-3.57366">
        <ele>136.16394042969</ele>
        <time>2012-04-18T13:02:17Z</time>
      </trkpt>
      <trkpt lat="48.27417" lon="-3.57366">
        <ele>136.16394042969</ele>
        <time>2012-04-18T13:03:01Z</time>
      </trkpt>
      <trkpt lat="48.27417" lon="-3.57366">
        <ele>136.16394042969</ele>
        <time>2012-04-18T13:03:47Z</time>
      </trkpt>
      <trkpt lat="48.27417" lon="-3.57366">
        <ele>136.16394042969</ele>
        <time>2012-04-18T13:03:53Z</time>
      </trkpt>
      <trkpt lat="48.27461" lon="-3.57295">
        <ele>133.76049804688</ele>
        <time>2012-04-18T13:04:08Z</time>
      </trkpt>
      <trkpt lat="48.27494" lon="-3.57238">
        <ele>132.31860351562</ele>
        <time>2012-04-18T13:04:24Z</time>
      </trkpt>
      <trkpt lat="48.27495" lon="-3.57236">
        <ele>132.31860351562</ele>
        <time>2012-04-18T13:04:25Z</time>
      </trkpt>
      <trkpt lat="48.27512" lon="-3.57239">
        <ele>132.31860351562</ele>
        <time>2012-04-18T13:04:31Z</time>
      </trkpt>
      <trkpt lat="48.27517" lon="-3.5724">
        <ele>133.76049804688</ele>
        <time>2012-04-18T13:04:37Z</time>
      </trkpt>
      <trkpt lat="48.27529" lon="-3.57191">
        <ele>135.20251464844</ele>
        <time>2012-04-18T13:04:52Z</time>
      </trkpt>
      <trkpt lat="48.27537" lon="-3.57134">
        <ele>137.60583496094</ele>
        <time>2012-04-18T13:05:12Z</time>
      </trkpt>
      <trkpt lat="48.27542" lon="-3.57079">
        <ele>138.56726074219</ele>
        <time>2012-04-18T13:05:26Z</time>
      </trkpt>
      <trkpt lat="48.27566" lon="-3.57077">
        <ele>140.00915527344</ele>
        <time>2012-04-18T13:05:34Z</time>
      </trkpt>
      <trkpt lat="48.2759" lon="-3.57088">
        <ele>147.69970703125</ele>
        <time>2012-04-18T13:05:46Z</time>
      </trkpt>
      <trkpt lat="48.2762" lon="-3.57103">
        <ele>147.21899414062</ele>
        <time>2012-04-18T13:06:06Z</time>
      </trkpt>
      <trkpt lat="48.27644" lon="-3.57113">
        <ele>145.29638671875</ele>
        <time>2012-04-18T13:06:20Z</time>
      </trkpt>
      <trkpt lat="48.27644" lon="-3.57113">
        <ele>145.29638671875</ele>
        <time>2012-04-18T13:06:38Z</time>
      </trkpt>
      <trkpt lat="48.27665" lon="-3.57094">
        <ele>143.37365722656</ele>
        <time>2012-04-18T13:06:49Z</time>
      </trkpt>
      <trkpt lat="48.27684" lon="-3.57094">
        <ele>140.97045898438</ele>
        <time>2012-04-18T13:06:56Z</time>
      </trkpt>
      <trkpt lat="48.2769" lon="-3.57081">
        <ele>140.00915527344</ele>
        <time>2012-04-18T13:07:00Z</time>
      </trkpt>
      <trkpt lat="48.27696" lon="-3.57067">
        <ele>139.0478515625</ele>
        <time>2012-04-18T13:07:03Z</time>
      </trkpt>
      <trkpt lat="48.27734" lon="-3.57006">
        <ele>136.16394042969</ele>
        <time>2012-04-18T13:07:19Z</time>
      </trkpt>
      <trkpt lat="48.27764" lon="-3.56955">
        <ele>134.72192382812</ele>
        <time>2012-04-18T13:07:35Z</time>
      </trkpt>
      <trkpt lat="48.27764" lon="-3.56955">
        <ele>134.72192382812</ele>
        <time>2012-04-18T13:07:37Z</time>
      </trkpt>
      <trkpt lat="48.27766" lon="-3.56953">
        <ele>135.20251464844</ele>
        <time>2012-04-18T13:07:39Z</time>
      </trkpt>
      <trkpt lat="48.27769" lon="-3.56996">
        <ele>136.64465332031</ele>
        <time>2012-04-18T13:07:48Z</time>
      </trkpt>
      <trkpt lat="48.2777" lon="-3.5701">
        <ele>137.12524414062</ele>
        <time>2012-04-18T13:07:51Z</time>
      </trkpt>
      <trkpt lat="48.27782" lon="-3.57021">
        <ele>137.12524414062</ele>
        <time>2012-04-18T13:07:56Z</time>
      </trkpt>
      <trkpt lat="48.27796" lon="-3.57056">
        <ele>136.16394042969</ele>
        <time>2012-04-18T13:08:08Z</time>
      </trkpt>
      <trkpt lat="48.27776" lon="-3.57133">
        <ele>134.2412109375</ele>
        <time>2012-04-18T13:08:23Z</time>
      </trkpt>
      <trkpt lat="48.27809" lon="-3.57164">
        <ele>137.12524414062</ele>
        <time>2012-04-18T13:08:33Z</time>
      </trkpt>
      <trkpt lat="48.27827" lon="-3.57178">
        <ele>135.68310546875</ele>
        <time>2012-04-18T13:08:39Z</time>
      </trkpt>
      <trkpt lat="48.27829" lon="-3.5718">
        <ele>135.20251464844</ele>
        <time>2012-04-18T13:08:42Z</time>
      </trkpt>
      <trkpt lat="48.27837" lon="-3.57186">
        <ele>135.68310546875</ele>
        <time>2012-04-18T13:08:56Z</time>
      </trkpt>
      <trkpt lat="48.27837" lon="-3.57186">
        <ele>135.20251464844</ele>
        <time>2012-04-18T13:09:53Z</time>
      </trkpt>
      <trkpt lat="48.27833" lon="-3.57183">
        <ele>135.20251464844</ele>
        <time>2012-04-18T13:10:03Z</time>
      </trkpt>
      <trkpt lat="48.27816" lon="-3.57169">
        <ele>133.76049804688</ele>
        <time>2012-04-18T13:10:15Z</time>
      </trkpt>
      <trkpt lat="48.2775" lon="-3.5712">
        <ele>132.31860351562</ele>
        <time>2012-04-18T13:10:34Z</time>
      </trkpt>
      <trkpt lat="48.27718" lon="-3.57118">
        <ele>132.79931640625</ele>
        <time>2012-04-18T13:10:44Z</time>
      </trkpt>
      <trkpt lat="48.27687" lon="-3.57105">
        <ele>134.2412109375</ele>
        <time>2012-04-18T13:10:58Z</time>
      </trkpt>
      <trkpt lat="48.27652" lon="-3.57108">
        <ele>138.56726074219</ele>
        <time>2012-04-18T13:11:11Z</time>
      </trkpt>
      <trkpt lat="48.27641" lon="-3.57181">
        <ele>140.97045898438</ele>
        <time>2012-04-18T13:11:29Z</time>
      </trkpt>
      <trkpt lat="48.27629" lon="-3.57279">
        <ele>141.45104980469</ele>
        <time>2012-04-18T13:11:49Z</time>
      </trkpt>
      <trkpt lat="48.27624" lon="-3.57313">
        <ele>143.37365722656</ele>
        <time>2012-04-18T13:11:59Z</time>
      </trkpt>
      <trkpt lat="48.27626" lon="-3.57399">
        <ele>143.37365722656</ele>
        <time>2012-04-18T13:12:10Z</time>
      </trkpt>
      <trkpt lat="48.2762" lon="-3.57438">
        <ele>142.41247558594</ele>
        <time>2012-04-18T13:12:20Z</time>
      </trkpt>
      <trkpt lat="48.2762" lon="-3.57438">
        <ele>142.41247558594</ele>
        <time>2012-04-18T13:12:30Z</time>
      </trkpt>
      <trkpt lat="48.2762" lon="-3.57438">
        <ele>142.41247558594</ele>
        <time>2012-04-18T13:13:17Z</time>
      </trkpt>
    </trkseg>
  </trk>
</gpx>